KSHN/SHN METAR and TAF weather

Enter ICAO airport designator
Station Type Date Time Source
KSHN METAR 2020/04/03 07:53 UTC NOAA

KSHN 030753Z AUTO 23005KT 10SM BKN055 01/M01 A3016 RMK AO2 SLP217 T00111011 400890006


Station Type Date Time Source
KSHN Decoded METAR 2020/04/03 07:53 UTC NOAA

SHELTON SANDERSON FIELD, WA, United States (KSHN) 47-14N 123-08W 82M
Apr 03, 2020 - 03:53 AM EDT / 2020.04.03 0753 UTC
Wind: from the SW (230 degrees) at 6 MPH (5 KT):0
Visibility: 10 mile(s):0
Sky conditions: mostly cloudy
Temperature: 34.0 F (1.1 C)
Windchill: 28 F (-2 C):1
Dew Point: 30.0 F (-1.1 C)
Relative Humidity: 85%
Pressure (altimeter): 30.16 in. Hg (1021 hPa)
ob: KSHN 030753Z AUTO 23005KT 10SM BKN055 01/M01 A3016 RMK AO2 SLP217 T00111011 400890006
cycle: 8

Station Type Date Time Source
KSHN TAF UTC NOAA

Error!

Example: see airport list